Main page
METAR-TAF:

METAR-TAF

Airports :

Reykjavík Airport

Reykjavík, Iceland

latitude: 64-08N, longitude: 021-54W, elevation: 54 m

Current weather observation

The report was made 56 minutes ago, at 02:00 UTC
Wind 12 kt from the East/Northeast
Temperature 0°C
Humidity 51%
Pressure 963 hPa
Visibility 10 km or more
no clouds below 1500 m and no cumulonimbus

METAR: BIRK 210200Z 07012KT CAVOK 00/M09 Q0963

Time: 02:56 (02:56 UTC)

Forecast

The report was made 1 hour and 49 minutes ago, at 01:07 UTC
Forecast valid from 21 at 03 UTC to 22 at 03 UTC
Wind 15 kt from the East
Visibility 10 km or more
Few clouds at a height of 2800 ft
Broken clouds at a height of 4200 ft
Becoming
from 21 at 10 UTC to 21 at 12 UTC
Wind 20 kt from the North/Northeast with gusts up to 30 kt
Becoming
from 21 at 20 UTC to 21 at 22 UTC
Wind 15 kt from the North

TAF: BIRK 210107Z 2103/2203 08015KT 9999 FEW028 BKN042 TX02/2115Z TNM01/2106Z BECMG 2110/2112 03020G30KT BECMG 2120/2122 36015KT

Weather observations and forecasts of more than 4000 airports (METAR and TAF reports).

The available stations are represented by yellow and red dots on the map.

Hover mouse over dot to see the name of the station.

Then click to see weather observations and forecasts.

To change the map : click on the green buttons with a black cross to zoom in, on the green button with a dash to zoom out, or on the green arrows for adjacent maps.


METAR-TAF: